Time;durP1;ratioP1;P1;durP2;ratioP2;P2;SDS_P1;SDS_P2;PMS_P1;PMS_P2;Temp;Humidity;BMP_temperature;BMP_pressure;BME280_temperature;BME280_humidity;BME280_pressure;Samples;Min_cycle;Max_cycle;Signal;HPM_P1;HPM_P2
2021/03/31 00:01:31;;;;;;;101.57;63.63;;;11.30;97.30;;;;;;5100653;28;20043;-70
2021/03/31 00:03:56;;;;;;;141.57;83.05;;;11.40;97.00;;;;;;5099070;28;20048;-69
2021/03/31 00:06:22;;;;;;;138.15;85.28;;;11.10;97.40;;;;;;5100051;28;20024;-75
2021/03/31 00:08:48;;;;;;;137.38;88.65;;;11.20;97.80;;;;;;5100635;28;20045;-69
2021/03/31 00:11:14;;;;;;;135.30;83.28;;;11.20;97.60;;;;;;5098802;28;20027;-70
2021/03/31 00:13:40;;;;;;;138.15;84.13;;;11.10;97.60;;;;;;5100332;28;20024;-73
2021/03/31 00:16:06;;;;;;;124.72;77.45;;;11.10;98.20;;;;;;5098364;28;20039;-70
2021/03/31 00:18:33;;;;;;;121.55;75.80;;;11.10;97.80;;;;;;5081359;28;20040;-70
2021/03/31 00:20:59;;;;;;;109.22;70.38;;;11.10;97.70;;;;;;5099316;28;20569;-75
2021/03/31 00:23:27;;;;;;;126.15;79.07;;;11.00;97.60;;;;;;5100330;28;20038;-70
2021/03/31 00:25:54;;;;;;;126.80;77.68;;;11.00;97.90;;;;;;5099845;28;20023;-70
2021/03/31 00:28:20;;;;;;;105.70;68.90;;;11.00;97.80;;;;;;5098579;28;20107;-74
2021/03/31 00:30:47;;;;;;;111.47;70.13;;;10.90;98.30;;;;;;5081441;28;20048;-77
2021/03/31 00:33:14;;;;;;;102.45;65.78;;;11.00;97.80;;;;;;5100515;28;20031;-73
2021/03/31 00:35:41;;;;;;;108.20;68.50;;;10.90;98.30;;;;;;5099954;28;20036;-72
2021/03/31 00:38:07;;;;;;;94.07;58.78;;;10.90;98.20;;;;;;5099772;28;20016;-72
2021/03/31 00:40:50;;;;;;;84.82;51.70;;;10.80;98.20;;;;;;5096938;28;20129;-71
2021/03/31 00:43:17;;;;;;;86.97;54.75;;;10.70;98.20;;;;;;5098964;28;20027;-69
2021/03/31 00:45:44;;;;;;;92.63;55.38;;;10.50;98.40;;;;;;5098592;28;20035;-71
2021/03/31 00:48:15;;;;;;;92.57;55.17;;;10.50;98.50;;;;;;5099364;28;20537;-70
2021/03/31 00:50:47;;;;;;;92.35;54.75;;;10.50;98.90;;;;;;5099444;28;20028;-70
2021/03/31 00:53:19;;;;;;;92.13;54.83;;;10.50;98.90;;;;;;5081159;28;20036;-70
2021/03/31 00:55:46;;;;;;;87.95;52.78;;;10.50;98.70;;;;;;5097668;28;20055;-71
2021/03/31 00:58:13;;;;;;;83.40;52.55;;;10.50;98.50;;;;;;5100040;28;20043;-79
2021/03/31 01:00:39;;;;;;;90.97;54.03;;;10.40;98.20;;;;;;5100130;28;20527;-71
2021/03/31 01:03:06;;;;;;;89.38;51.60;;;10.40;98.60;;;;;;5098266;28;20091;-78
2021/03/31 01:05:33;;;;;;;93.97;55.03;;;10.40;98.50;;;;;;5099757;28;20063;-76
2021/03/31 01:07:59;;;;;;;95.22;58.08;;;10.40;98.50;;;;;;5099974;28;20024;-78
2021/03/31 01:10:33;;;;;;;105.10;62.83;;;10.40;98.30;;;;;;5099345;28;20014;-77
2021/03/31 01:13:05;;;;;;;96.25;59.10;;;10.40;98.60;;;;;;5081139;28;20020;-78
2021/03/31 01:15:44;;;;;;;93.63;56.42;;;10.40;98.60;;;;;;5097838;28;20032;-70
2021/03/31 01:18:22;;;;;;;86.68;54.47;;;10.30;98.70;;;;;;5100429;28;20020;-70
2021/03/31 01:21:22;;;;;;;88.85;55.78;;;10.40;98.20;;;;;;5100118;28;20031;-69
2021/03/31 01:24:09;;;;;;;85.30;56.28;;;10.40;98.70;;;;;;5098156;28;20028;-69
2021/03/31 01:26:38;;;;;;;84.57;56.20;;;10.30;98.60;;;;;;5099229;28;20027;-78
2021/03/31 01:29:18;;;;;;;84.68;57.10;;;10.30;98.60;;;;;;5099138;28;20062;-77
2021/03/31 01:32:07;;;;;;;88.25;59.65;;;10.20;98.90;;;;;;5099066;28;20035;-71
2021/03/31 01:34:56;;;;;;;89.47;57.60;;;10.10;99.20;;;;;;5051627;28;20055;-71
2021/03/31 01:37:23;;;;;;;89.60;57.05;;;10.20;98.90;;;;;;5098156;28;20098;-71
2021/03/31 01:39:51;;;;;;;97.28;60.13;;;10.20;98.90;;;;;;5099355;28;20024;-71
2021/03/31 01:42:19;;;;;;;92.47;60.78;;;10.20;98.50;;;;;;5097886;28;20042;-70
2021/03/31 01:44:47;;;;;;;94.07;61.40;;;10.20;99.00;;;;;;5098607;28;20466;-75
2021/03/31 01:47:17;;;;;;;88.43;57.85;;;10.20;98.20;;;;;;5098477;28;20058;-70
2021/03/31 01:49:43;;;;;;;99.15;59.90;;;10.20;98.40;;;;;;5100134;28;20044;-70
2021/03/31 01:52:12;;;;;;;96.45;61.40;;;10.10;98.40;;;;;;5102359;28;20024;-69
2021/03/31 01:54:41;;;;;;;99.38;64.72;;;10.10;98.40;;;;;;5102079;28;20389;-77
2021/03/31 01:57:10;;;;;;;104.13;67.13;;;10.00;98.40;;;;;;5084810;28;20031;-79
2021/03/31 01:59:37;;;;;;;97.70;67.28;;;10.00;99.00;;;;;;5102942;28;20458;-70
2021/03/31 02:02:10;;;;;;;92.30;62.63;;;9.90;98.90;;;;;;5102091;28;20024;-70
2021/03/31 02:04:38;;;;;;;98.28;65.65;;;9.90;99.20;;;;;;5085046;28;20024;-71
2021/03/31 02:07:09;;;;;;;87.72;57.17;;;9.90;99.30;;;;;;5102611;28;20012;-69
2021/03/31 02:09:39;;;;;;;83.80;53.70;;;9.80;99.10;;;;;;5084567;28;20032;-77
2021/03/31 02:12:12;;;;;;;79.88;51.50;;;9.80;99.00;;;;;;5084033;28;20107;-79
2021/03/31 02:14:41;;;;;;;77.38;49.92;;;9.80;99.10;;;;;;5103158;28;20026;-72
2021/03/31 02:17:09;;;;;;;79.25;50.38;;;9.70;99.10;;;;;;5101645;28;20048;-70
2021/03/31 02:19:38;;;;;;;72.97;48.08;;;9.70;99.30;;;;;;5102706;28;20055;-71
2021/03/31 02:22:07;;;;;;;68.60;46.95;;;9.60;99.10;;;;;;5084078;28;20027;-69
2021/03/31 02:24:34;;;;;;;62.40;44.38;;;9.50;99.40;;;;;;5102746;28;20103;-69
2021/03/31 02:27:01;;;;;;;66.75;44.17;;;9.20;99.90;;;;;;5101485;28;20073;-78
2021/03/31 02:29:27;;;;;;;69.93;44.30;;;9.10;99.90;;;;;;5102071;28;20480;-70
2021/03/31 02:31:54;;;;;;;66.55;44.08;;;9.10;99.90;;;;;;5084645;28;20028;-70
2021/03/31 02:34:22;;;;;;;63.53;42.50;;;9.10;99.90;;;;;;5103032;28;20020;-70
2021/03/31 02:36:50;;;;;;;62.85;41.38;;;9.10;99.90;;;;;;5101911;28;20055;-70
2021/03/31 02:39:19;;;;;;;61.53;40.55;;;9.20;99.90;;;;;;5102011;28;20018;-78
2021/03/31 02:41:49;;;;;;;62.28;40.47;;;9.20;99.90;;;;;;5082943;28;20111;-69
2021/03/31 02:44:17;;;;;;;52.47;36.35;;;9.10;99.90;;;;;;5084724;28;20058;-69
2021/03/31 02:46:45;;;;;;;54.67;36.40;;;9.10;99.90;;;;;;5100393;28;20110;-75
2021/03/31 02:49:12;;;;;;;58.10;34.65;;;9.00;99.90;;;;;;5102597;28;20359;-70
2021/03/31 02:51:39;;;;;;;45.25;30.95;;;9.00;99.90;;;;;;5101542;28;20020;-79
2021/03/31 02:54:07;;;;;;;49.83;30.70;;;9.10;99.90;;;;;;5083111;28;20068;-74
2021/03/31 02:56:33;;;;;;;49.60;31.75;;;9.10;99.90;;;;;;5100576;28;20103;-66
2021/03/31 02:59:02;;;;;;;47.03;30.13;;;9.10;99.90;;;;;;5101185;28;20024;-73
2021/03/31 03:01:28;;;;;;;43.45;30.73;;;9.20;99.90;;;;;;5101026;28;20027;-72
2021/03/31 03:03:58;;;;;;;46.97;30.20;;;9.20;99.90;;;;;;5102102;28;20048;-68
2021/03/31 03:06:30;;;;;;;39.25;28.27;;;9.20;99.90;;;;;;5102076;28;20048;-71
2021/03/31 03:08:57;;;;;;;39.90;26.85;;;9.10;99.90;;;;;;5102246;28;20077;-76
2021/03/31 03:11:25;;;;;;;27.20;20.20;;;9.00;99.90;;;;;;5100865;28;20021;-77
2021/03/31 03:13:53;;;;;;;29.75;19.05;;;8.90;99.90;;;;;;5100068;28;20399;-78
2021/03/31 03:16:20;;;;;;;28.38;18.55;;;8.90;99.90;;;;;;5101619;28;20132;-72
2021/03/31 03:18:49;;;;;;;25.98;17.30;;;8.90;99.90;;;;;;5101571;28;20107;-78
2021/03/31 03:21:16;;;;;;;31.13;19.00;;;8.90;99.90;;;;;;5083721;28;20024;-79
2021/03/31 03:23:43;;;;;;;33.90;19.98;;;8.80;99.90;;;;;;5101880;28;20162;-72
2021/03/31 03:26:12;;;;;;;40.15;24.13;;;8.90;99.90;;;;;;5083366;28;20066;-70
2021/03/31 03:28:40;;;;;;;90.90;45.55;;;9.00;99.90;;;;;;5101221;28;20545;-70
2021/03/31 03:31:07;;;;;;;53.63;31.15;;;9.10;99.90;;;;;;5100789;28;20500;-72
2021/03/31 03:33:33;;;;;;;45.65;25.45;;;9.10;99.90;;;;;;5082937;28;20028;-70
2021/03/31 03:36:04;;;;;;;41.20;25.10;;;9.10;99.90;;;;;;5100612;28;20563;-74
2021/03/31 03:38:31;;;;;;;50.00;31.65;;;9.00;99.90;;;;;;5101095;28;20028;-74
2021/03/31 03:40:57;;;;;;;52.30;32.95;;;9.00;99.90;;;;;;5081598;28;20024;-70
2021/03/31 03:43:23;;;;;;;44.83;28.08;;;8.80;99.90;;;;;;5099892;28;20020;-73
2021/03/31 03:45:57;;;;;;;45.25;27.20;;;8.80;99.90;;;;;;5100735;28;20565;-74
2021/03/31 03:48:23;;;;;;;40.92;26.88;;;8.80;99.90;;;;;;5083454;28;20466;-74
2021/03/31 03:50:49;;;;;;;38.63;27.20;;;8.90;99.90;;;;;;5101052;28;20028;-72
2021/03/31 03:53:16;;;;;;;40.33;26.88;;;9.00;99.90;;;;;;5100874;28;20016;-70
2021/03/31 03:55:43;;;;;;;44.88;26.48;;;9.00;99.90;;;;;;5100544;28;20016;-77
2021/03/31 03:58:09;;;;;;;44.55;27.27;;;9.10;99.90;;;;;;5099780;28;20012;-70
2021/03/31 04:00:36;;;;;;;42.15;26.95;;;9.10;99.90;;;;;;5100782;28;20023;-77
2021/03/31 04:03:03;;;;;;;41.13;26.30;;;9.10;99.90;;;;;;5099311;28;20125;-77
2021/03/31 04:05:29;;;;;;;40.17;26.33;;;9.20;99.90;;;;;;5101132;28;20101;-77
2021/03/31 04:07:57;;;;;;;40.95;24.75;;;9.20;99.90;;;;;;5083147;28;20020;-78
2021/03/31 04:10:26;;;;;;;35.88;24.85;;;9.20;99.90;;;;;;5100508;28;20096;-77
2021/03/31 04:12:56;;;;;;;36.67;25.25;;;9.10;99.90;;;;;;5100581;28;20036;-71
2021/03/31 04:15:23;;;;;;;45.17;28.13;;;9.10;99.90;;;;;;5100127;28;20087;-70
2021/03/31 04:17:50;;;;;;;42.25;28.95;;;9.10;99.90;;;;;;5100533;28;20022;-69
2021/03/31 04:20:21;;;;;;;50.25;33.90;;;9.00;99.90;;;;;;5099905;28;20016;-70
2021/03/31 04:22:48;;;;;;;63.10;38.83;;;9.10;99.90;;;;;;5101232;28;20036;-76
2021/03/31 04:25:17;;;;;;;55.50;34.42;;;9.20;99.90;;;;;;5099803;28;20056;-72
2021/03/31 04:27:48;;;;;;;54.22;32.75;;;9.20;99.90;;;;;;5098956;28;20031;-76
2021/03/31 04:30:15;;;;;;;47.25;30.75;;;9.30;99.90;;;;;;5082512;28;20491;-74
2021/03/31 04:32:47;;;;;;;57.17;35.85;;;9.30;99.90;;;;;;5100529;28;20370;-78
2021/03/31 04:35:16;;;;;;;68.28;42.47;;;9.30;99.90;;;;;;5099036;28;20063;-70
2021/03/31 04:37:42;;;;;;;63.47;39.22;;;9.30;99.90;;;;;;5100157;28;20024;-71
2021/03/31 04:40:13;;;;;;;64.90;38.60;;;9.30;99.90;;;;;;5099918;28;20088;-80
2021/03/31 04:42:40;;;;;;;68.30;41.67;;;9.40;99.90;;;;;;5100102;28;20065;-73
2021/03/31 04:45:08;;;;;;;72.55;42.33;;;9.40;99.90;;;;;;5099825;28;20020;-76
2021/03/31 04:47:35;;;;;;;66.03;41.65;;;9.40;99.90;;;;;;5080808;28;20031;-71
2021/03/31 04:50:01;;;;;;;69.95;41.63;;;9.50;99.90;;;;;;5099629;28;20016;-70
2021/03/31 04:52:28;;;;;;;65.32;40.78;;;9.40;99.90;;;;;;5080334;28;20024;-69
2021/03/31 04:54:55;;;;;;;69.65;42.35;;;9.50;99.90;;;;;;5099765;28;20065;-69
2021/03/31 04:57:21;;;;;;;74.53;44.00;;;9.50;99.90;;;;;;5099379;28;20024;-70
2021/03/31 04:59:47;;;;;;;78.00;48.03;;;9.60;99.90;;;;;;5080796;28;20424;-71
2021/03/31 05:02:13;;;;;;;84.45;51.05;;;9.70;99.90;;;;;;5098993;28;20109;-73
2021/03/31 05:04:39;;;;;;;78.93;48.90;;;9.80;99.90;;;;;;5081441;28;20050;-71
2021/03/31 05:07:05;;;;;;;76.07;47.10;;;9.90;99.90;;;;;;5097670;28;20024;-74
2021/03/31 05:09:31;;;;;;;68.72;43.75;;;10.00;99.90;;;;;;5081657;28;20438;-70
2021/03/31 05:11:58;;;;;;;74.38;44.20;;;9.90;99.80;;;;;;5098331;28;20016;-73
2021/03/31 05:14:24;;;;;;;73.70;47.35;;;9.90;99.90;;;;;;5099383;28;20437;-73
2021/03/31 05:16:50;;;;;;;86.10;50.17;;;10.00;99.80;;;;;;5099337;28;20030;-70
2021/03/31 05:19:16;;;;;;;71.63;46.33;;;10.00;99.90;;;;;;5099152;28;20027;-70
2021/03/31 05:21:41;;;;;;;74.78;44.10;;;9.80;99.90;;;;;;5099682;28;20108;-71
2021/03/31 05:24:07;;;;;;;64.57;41.15;;;9.80;99.90;;;;;;5096354;28;20085;-70
2021/03/31 05:26:33;;;;;;;70.20;47.15;;;9.70;99.90;;;;;;5094189;28;20024;-70
2021/03/31 05:28:59;;;;;;;72.88;49.25;;;9.60;99.90;;;;;;5098587;28;20095;-70
2021/03/31 05:31:25;;;;;;;53.00;38.53;;;9.60;99.90;;;;;;5080112;28;20434;-71
2021/03/31 05:33:51;;;;;;;55.58;35.35;;;9.60;99.90;;;;;;5081567;28;20104;-70
2021/03/31 05:36:17;;;;;;;50.47;32.10;;;9.60;99.90;;;;;;5099355;28;20081;-71
2021/03/31 05:38:42;;;;;;;45.58;30.08;;;9.60;99.90;;;;;;5098176;28;20032;-76
2021/03/31 05:41:09;;;;;;;44.55;29.20;;;9.70;99.90;;;;;;5099270;28;20020;-70
2021/03/31 05:43:35;;;;;;;43.40;29.15;;;9.70;99.90;;;;;;5097371;28;20016;-77
2021/03/31 05:46:01;;;;;;;54.53;32.20;;;9.70;99.90;;;;;;5080432;28;20024;-71
2021/03/31 05:48:27;;;;;;;67.82;36.33;;;9.80;99.90;;;;;;5080652;28;20078;-70
2021/03/31 05:50:53;;;;;;;69.10;38.70;;;9.90;99.90;;;;;;5098933;28;20397;-76
2021/03/31 05:53:19;;;;;;;94.00;47.15;;;9.80;99.90;;;;;;5098464;28;20028;-71
2021/03/31 05:55:45;;;;;;;82.22;43.80;;;9.90;99.90;;;;;;5079862;28;20032;-70
2021/03/31 05:58:11;;;;;;;101.28;54.72;;;10.00;99.90;;;;;;5079600;28;20027;-80
2021/03/31 06:00:38;;;;;;;104.78;58.65;;;10.10;99.90;;;;;;5098533;28;20027;-78
2021/03/31 06:03:05;;;;;;;105.63;63.85;;;10.20;99.90;;;;;;5080169;28;20135;-70
2021/03/31 06:05:34;;;;;;;98.47;60.10;;;10.30;99.90;;;;;;5098297;28;20013;-78
2021/03/31 06:08:00;;;;;;;88.88;57.10;;;10.40;99.90;;;;;;5098763;28;20008;-78
2021/03/31 06:10:28;;;;;;;98.70;65.38;;;10.40;99.90;;;;;;5080641;28;20470;-74
2021/03/31 06:12:59;;;;;;;89.90;57.60;;;10.40;99.90;;;;;;5097308;28;20024;-70
2021/03/31 06:15:39;;;;;;;83.50;58.88;;;10.40;99.90;;;;;;5096372;28;20471;-74
2021/03/31 06:18:10;;;;;;;78.60;56.35;;;10.50;99.90;;;;;;5078647;28;20048;-76
2021/03/31 06:20:43;;;;;;;80.43;54.92;;;10.60;99.90;;;;;;5060395;28;20028;-77
2021/03/31 06:23:46;;;;;;;72.95;52.17;;;10.70;99.90;;;;;;5079222;28;20021;-72
2021/03/31 06:26:26;;;;;;;76.25;52.38;;;10.80;99.90;;;;;;5075485;28;20037;-79
2021/03/31 06:29:08;;;;;;;68.00;47.88;;;10.90;99.90;;;;;;5075835;28;20024;-70
2021/03/31 06:31:40;;;;;;;70.95;51.42;;;10.90;99.90;;;;;;5076189;28;20042;-71
2021/03/31 06:34:09;;;;;;;68.88;49.40;;;11.00;99.90;;;;;;5078824;28;20021;-77
2021/03/31 06:36:45;;;;;;;70.63;48.42;;;11.20;99.90;;;;;;5078554;28;20055;-70
2021/03/31 06:39:32;;;;;;;69.90;49.17;;;11.20;99.70;;;;;;5082112;28;20036;-79
2021/03/31 06:42:13;;;;;;;78.05;57.45;;;11.40;99.60;;;;;;5081940;28;20039;-73
2021/03/31 06:45:03;;;;;;;82.32;58.50;;;11.50;99.10;;;;;;5082777;28;20059;-70
2021/03/31 06:47:42;;;;;;;86.68;59.78;;;11.60;99.10;;;;;;5082191;28;20086;-77
2021/03/31 06:50:11;;;;;;;90.55;60.90;;;11.70;98.50;;;;;;5096506;28;20119;-71
2021/03/31 06:52:56;;;;;;;91.80;62.60;;;11.80;98.40;;;;;;5080524;28;20027;-71
2021/03/31 06:55:27;;;;;;;91.53;62.00;;;11.90;97.90;;;;;;5063543;28;20024;-70
2021/03/31 06:57:58;;;;;;;87.35;61.03;;;12.10;99.00;;;;;;5097739;28;20031;-69
2021/03/31 07:00:29;;;;;;;89.75;61.45;;;12.10;98.60;;;;;;5081581;28;20423;-79
2021/03/31 07:03:01;;;;;;;82.93;59.03;;;12.20;97.70;;;;;;5096252;28;20060;-71
2021/03/31 07:05:36;;;;;;;98.30;61.53;;;12.30;97.50;;;;;;5080602;28;20059;-73
2021/03/31 07:08:14;;;;;;;88.65;58.72;;;;;;;;;;5095493;28;20023;-70
2021/03/31 07:10:50;;;;;;;82.10;57.00;;;12.40;98.20;;;;;;5098072;28;20087;-80
2021/03/31 07:13:27;;;;;;;87.38;59.00;;;12.50;97.50;;;;;;5063836;28;20051;-70
2021/03/31 07:15:55;;;;;;;85.80;60.22;;;12.60;98.30;;;;;;5081260;28;20051;-71
2021/03/31 07:18:25;;;;;;;91.05;65.72;;;12.60;98.10;;;;;;5080701;28;20033;-70
2021/03/31 07:20:51;;;;;;;82.95;59.95;;;12.60;98.90;;;;;;5081534;28;20028;-77
2021/03/31 07:23:21;;;;;;;79.55;59.17;;;12.70;97.90;;;;;;5081886;28;20016;-71
2021/03/31 07:25:47;;;;;;;83.35;59.70;;;12.70;97.70;;;;;;5081953;28;20024;-77
2021/03/31 07:28:27;;;;;;;81.93;59.17;;;12.80;97.20;;;;;;5080584;28;20036;-73
2021/03/31 07:30:53;;;;;;;80.68;58.63;;;13.00;97.60;;;;;;5081117;28;20021;-71
2021/03/31 07:33:25;;;;;;;79.72;57.15;;;13.10;97.10;;;;;;5081402;28;20031;-71
2021/03/31 07:35:53;;;;;;;77.78;55.95;;;13.10;97.00;;;;;;5082030;28;20056;-75
2021/03/31 07:38:22;;;;;;;79.53;56.53;;;13.10;96.60;;;;;;5082061;28;20362;-75
2021/03/31 07:40:52;;;;;;;71.10;49.08;;;13.30;96.70;;;;;;5096512;28;20025;-68
2021/03/31 07:43:23;;;;;;;71.18;50.42;;;;;;;;;;5080572;28;20074;-76
2021/03/31 07:46:15;;;;;;;73.53;51.38;;;13.60;95.70;;;;;;5080995;28;20039;-75
2021/03/31 07:48:43;;;;;;;67.47;45.58;;;13.70;95.90;;;;;;5068628;28;20491;-74
2021/03/31 07:51:24;;;;;;;63.78;45.70;;;13.70;94.70;;;;;;5101072;28;20027;-77
2021/03/31 07:53:52;;;;;;;58.15;42.13;;;13.80;95.90;;;;;;5101928;28;20059;-80
2021/03/31 07:56:25;;;;;;;58.80;43.65;;;13.90;94.90;;;;;;5083099;28;20038;-72
2021/03/31 07:59:04;;;;;;;55.00;41.70;;;14.00;95.00;;;;;;5083595;28;20029;-80
2021/03/31 08:01:37;;;;;;;56.97;38.90;;;14.10;95.10;;;;;;5081079;28;20024;-67
2021/03/31 08:04:05;;;;;;;54.97;40.85;;;14.40;93.80;;;;;;5100583;28;20429;-67
2021/03/31 08:06:33;;;;;;;51.97;37.60;;;14.80;94.60;;;;;;5083458;28;20035;-69
2021/03/31 08:09:03;;;;;;;52.60;37.03;;;15.10;92.80;;;;;;5098288;28;20081;-70
2021/03/31 08:11:38;;;;;;;47.83;34.97;;;15.60;91.70;;;;;;5100854;28;20115;-68
2021/03/31 08:14:07;;;;;;;51.75;38.08;;;15.80;91.20;;;;;;5096496;28;20028;-69
2021/03/31 08:16:40;;;;;;;49.40;36.15;;;16.20;91.40;;;;;;5076998;28;20035;-68
2021/03/31 08:19:09;;;;;;;47.60;35.92;;;16.30;88.80;;;;;;5093836;28;20373;-68
2021/03/31 08:21:35;;;;;;;43.20;32.53;;;16.50;88.50;;;;;;5092899;28;20115;-69
2021/03/31 08:24:05;;;;;;;43.88;32.10;;;16.80;89.40;;;;;;5092904;28;20444;-69
2021/03/31 08:26:44;;;;;;;44.40;33.15;;;17.20;86.10;;;;;;5090853;28;20042;-68
2021/03/31 08:29:19;;;;;;;40.83;28.92;;;17.30;84.40;;;;;;5091243;28;20485;-71
2021/03/31 08:32:00;;;;;;;34.03;26.85;;;17.30;79.90;;;;;;5093506;28;20026;-69
2021/03/31 08:34:28;;;;;;;34.10;27.15;;;17.80;78.30;;;;;;5074723;28;20031;-69
2021/03/31 08:36:54;;;;;;;36.80;28.88;;;17.70;73.50;;;;;;5093582;28;20407;-70
2021/03/31 08:39:21;;;;;;;42.50;30.88;;;17.70;75.90;;;;;;5093421;28;20108;-69
2021/03/31 08:41:53;;;;;;;37.85;29.00;;;17.60;75.40;;;;;;5091385;28;20033;-70
2021/03/31 08:44:59;;;;;;;37.10;27.42;;;18.00;78.50;;;;;;5093067;28;20026;-68
2021/03/31 08:47:20;;;;;;;35.45;26.80;;;18.10;75.90;;;;;;5091285;28;20507;-73
2021/03/31 08:50:07;;;;;;;32.53;24.35;;;18.50;73.40;;;;;;5097814;28;20424;-74
2021/03/31 08:52:38;;;;;;;32.60;24.33;;;18.70;70.90;;;;;;5099523;28;20036;-66
2021/03/31 08:55:08;;;;;;;33.00;24.58;;;18.50;71.40;;;;;;5100124;28;20032;-67
2021/03/31 08:57:34;;;;;;;32.75;24.25;;;18.70;69.70;;;;;;5082287;28;20051;-67
2021/03/31 09:00:04;;;;;;;31.38;23.35;;;18.90;69.00;;;;;;5097973;28;20020;-72
2021/03/31 09:02:31;;;;;;;31.23;21.83;;;19.20;68.10;;;;;;5097457;28;20054;-70
2021/03/31 09:04:59;;;;;;;29.73;20.35;;;19.20;67.20;;;;;;5098168;28;20020;-69
2021/03/31 09:07:25;;;;;;;32.80;23.88;;;19.40;62.10;;;;;;5098238;28;20024;-74
2021/03/31 09:09:52;;;;;;;39.70;26.95;;;19.40;63.90;;;;;;5098737;28;20063;-69
2021/03/31 09:12:26;;;;;;;35.72;26.08;;;19.10;62.50;;;;;;5100211;28;20377;-73
2021/03/31 09:14:57;;;;;;;37.03;24.90;;;19.10;63.60;;;;;;5100861;28;20027;-77
2021/03/31 09:17:26;;;;;;;55.55;39.55;;;19.10;62.90;;;;;;5100708;28;20058;-74
2021/03/31 09:19:56;;;;;;;37.65;25.65;;;18.60;63.00;;;;;;5099731;28;20028;-76
2021/03/31 09:22:27;;;;;;;30.55;23.38;;;18.80;65.20;;;;;;5100405;28;20063;-70
2021/03/31 09:24:57;;;;;;;38.65;27.08;;;18.70;65.60;;;;;;5082114;28;20039;-75
2021/03/31 09:27:26;;;;;;;32.63;24.38;;;18.70;64.70;;;;;;5100318;28;20031;-77
2021/03/31 09:29:56;;;;;;;33.95;24.30;;;18.70;64.10;;;;;;5100380;28;20024;-78
2021/03/31 09:33:12;;;;;;;31.98;21.90;;;19.20;63.70;;;;;;5099738;28;20466;-69
2021/03/31 09:35:15;;;;;;;26.63;19.65;;;19.20;62.30;;;;;;5094375;28;20123;-79
2021/03/31 09:37:51;;;;;;;28.02;19.85;;;19.10;60.00;;;;;;5100147;28;20028;-69
2021/03/31 09:40:28;;;;;;;25.02;17.77;;;19.80;64.60;;;;;;5100319;28;20027;-73
2021/03/31 09:42:59;;;;;;;25.15;15.80;;;20.10;63.00;;;;;;5083158;28;20055;-69
2021/03/31 09:45:32;;;;;;;18.13;11.27;;;20.40;59.90;;;;;;5097095;28;20043;-72
2021/03/31 09:47:59;;;;;;;11.88;8.10;;;20.60;58.10;;;;;;5096495;28;20118;-78
2021/03/31 09:50:30;;;;;;;13.25;9.15;;;20.90;54.90;;;;;;5092799;28;20067;-68
2021/03/31 09:52:58;;;;;;;21.60;11.80;;;21.20;57.10;;;;;;5092264;28;20032;-69
2021/03/31 09:55:24;;;;;;;39.53;16.73;;;21.60;54.20;;;;;;5095598;28;20382;-69
2021/03/31 09:57:52;;;;;;;18.77;13.63;;;20.50;56.60;;;;;;5081084;28;20158;-79
2021/03/31 10:00:19;;;;;;;25.98;15.85;;;20.80;56.90;;;;;;5082296;28;20042;-72
2021/03/31 10:02:46;;;;;;;23.85;15.85;;;20.90;58.90;;;;;;5098720;28;20054;-73
2021/03/31 10:05:18;;;;;;;20.25;13.57;;;21.00;60.10;;;;;;5099176;28;20397;-72
2021/03/31 10:08:01;;;;;;;19.70;13.43;;;21.40;59.20;;;;;;5100230;28;20024;-69
2021/03/31 10:10:45;;;;;;;23.15;17.60;;;21.30;55.40;;;;;;5100333;28;20020;-72
2021/03/31 10:13:13;;;;;;;21.15;14.38;;;20.40;57.20;;;;;;5103099;28;20024;-68
2021/03/31 10:15:42;;;;;;;20.75;14.43;;;20.60;57.90;;;;;;5101314;28;20043;-69
2021/03/31 10:18:12;;;;;;;14.98;11.35;;;21.50;59.10;;;;;;5096659;28;20476;-68
2021/03/31 10:20:49;;;;;;;17.38;12.05;;;22.10;55.90;;;;;;5077743;28;20110;-69
2021/03/31 10:23:35;;;;;;;18.83;11.93;;;22.50;55.30;;;;;;5094996;28;20103;-69
2021/03/31 10:26:24;;;;;;;21.58;14.45;;;22.60;55.10;;;;;;5094750;28;20024;-68
2021/03/31 10:28:52;;;;;;;26.48;16.50;;;22.60;54.40;;;;;;5096788;28;20044;-68
2021/03/31 10:31:33;;;;;;;18.80;13.30;;;22.00;53.30;;;;;;5096901;28;20032;-68
2021/03/31 10:34:00;;;;;;;12.82;9.20;;;21.70;54.40;;;;;;5096308;28;20032;-68
2021/03/31 10:50:27;;;;;;;12.10;7.97;;;22.40;50.80;;;;;;5095015;28;20051;-66
2021/03/31 10:52:56;;;;;;;10.57;6.90;;;22.80;54.30;;;;;;5074789;28;20028;-72
2021/03/31 10:55:22;;;;;;;11.00;7.32;;;23.00;54.10;;;;;;5095604;28;20078;-70
2021/03/31 10:57:47;;;;;;;11.35;6.78;;;22.50;53.80;;;;;;5077199;28;20016;-67
2021/03/31 11:00:14;;;;;;;8.98;6.10;;;22.90;54.10;;;;;;5095931;28;20488;-69
2021/03/31 11:02:40;;;;;;;10.20;5.75;;;23.30;52.50;;;;;;5097439;28;20047;-74
2021/03/31 11:05:06;;;;;;;10.45;6.65;;;23.90;51.90;;;;;;5102486;28;20020;-73
2021/03/31 11:07:32;;;;;;;9.32;5.50;;;23.40;50.50;;;;;;5103304;28;20197;-67
2021/03/31 11:10:00;;;;;;;9.10;6.07;;;23.10;48.00;;;;;;5102261;28;20024;-68
2021/03/31 11:12:27;;;;;;;10.93;6.22;;;23.90;51.00;;;;;;5100085;28;20381;-68
2021/03/31 11:14:53;;;;;;;8.68;5.88;;;24.20;50.30;;;;;;5100632;28;20374;-69
2021/03/31 11:17:25;;;;;;;10.90;6.10;;;24.50;49.80;;;;;;5101586;28;20020;-68
2021/03/31 11:27:48;;;;;;;10.25;8.45;;;24.20;49.60;;;;;;5099256;28;20508;-74
2021/03/31 11:30:15;;;;;;;8.80;6.18;;;24.10;46.40;;;;;;5100177;28;20099;-68
2021/03/31 11:32:41;;;;;;;8.98;5.10;;;24.10;49.80;;;;;;5101351;28;20035;-68
2021/03/31 11:35:07;;;;;;;8.38;5.03;;;24.40;47.50;;;;;;5102207;28;20466;-76
2021/03/31 11:37:33;;;;;;;7.13;4.88;;;24.20;46.10;;;;;;5101051;28;20039;-69
2021/03/31 11:39:59;;;;;;;11.07;7.53;;;24.40;46.00;;;;;;5081669;28;20020;-69
2021/03/31 11:42:25;;;;;;;14.10;11.68;;;24.40;48.80;;;;;;5100079;28;20020;-77
2021/03/31 11:44:50;;;;;;;12.80;8.38;;;24.40;48.10;;;;;;5099276;28;20020;-73
2021/03/31 11:47:16;;;;;;;8.57;5.68;;;23.70;49.30;;;;;;5083241;28;20023;-76
2021/03/31 11:49:42;;;;;;;7.93;5.70;;;23.10;47.50;;;;;;5079183;28;20027;-69
2021/03/31 11:52:08;;;;;;;10.77;7.45;;;23.10;47.10;;;;;;5096752;28;20020;-72
2021/03/31 11:54:34;;;;;;;9.05;6.25;;;23.00;48.70;;;;;;5102219;28;20031;-72
2021/03/31 11:57:00;;;;;;;9.60;5.55;;;23.60;49.60;;;;;;5100289;28;20382;-75
2021/03/31 11:59:26;;;;;;;12.18;5.57;;;24.30;49.80;;;;;;5098150;28;20020;-76
2021/03/31 12:01:52;;;;;;;9.75;6.10;;;24.00;47.10;;;;;;5101155;28;20024;-79
2021/03/31 12:04:18;;;;;;;12.63;7.78;;;23.80;47.00;;;;;;5098749;28;20040;-69
2021/03/31 12:06:44;;;;;;;9.15;6.15;;;23.60;50.90;;;;;;5098862;28;20024;-74
2021/03/31 12:09:11;;;;;;;9.60;6.30;;;24.20;50.60;;;;;;5095565;28;20020;-68
2021/03/31 12:11:37;;;;;;;11.82;8.02;;;24.00;48.00;;;;;;5094424;28;20026;-69
2021/03/31 12:14:03;;;;;;;9.50;6.05;;;24.60;46.80;;;;;;5094422;28;20388;-67
2021/03/31 12:16:29;;;;;;;13.40;7.70;;;24.70;47.50;;;;;;5093656;28;20028;-69
2021/03/31 12:18:55;;;;;;;11.35;6.75;;;24.80;46.60;;;;;;5094609;28;20039;-69
2021/03/31 12:21:21;;;;;;;13.55;7.50;;;23.60;45.80;;;;;;5094163;28;20024;-69
2021/03/31 12:23:47;;;;;;;15.02;11.27;;;24.10;48.20;;;;;;5094116;28;20027;-69
2021/03/31 12:26:14;;;;;;;13.18;8.65;;;23.80;47.40;;;;;;5094283;28;20017;-69
2021/03/31 12:28:42;;;;;;;12.45;7.72;;;24.40;48.80;;;;;;5092104;28;20031;-78
2021/03/31 12:31:08;;;;;;;22.05;7.53;;;24.70;49.90;;;;;;5094593;28;20004;-68
2021/03/31 12:33:35;;;;;;;9.93;5.95;;;25.00;49.40;;;;;;5093910;28;20027;-72
2021/03/31 12:36:02;;;;;;;10.00;6.07;;;24.90;48.00;;;;;;5094799;28;20020;-68
2021/03/31 12:38:27;;;;;;;21.30;11.35;;;25.10;47.70;;;;;;5094013;28;20106;-70
2021/03/31 12:40:53;;;;;;;16.13;10.77;;;24.40;46.70;;;;;;5093907;28;20116;-70
2021/03/31 12:43:22;;;;;;;9.95;7.10;;;23.60;47.10;;;;;;5094386;28;20065;-76
2021/03/31 12:45:48;;;;;;;49.13;8.23;;;24.00;50.30;;;;;;5097642;28;20020;-70
2021/03/31 12:48:14;;;;;;;12.00;6.38;;;24.70;46.70;;;;;;5100276;28;20063;-70
2021/03/31 12:50:41;;;;;;;7.88;5.65;;;24.20;44.60;;;;;;5099958;28;20024;-79
2021/03/31 12:53:19;;;;;;;12.65;6.97;;;24.20;45.10;;;;;;5100672;28;20107;-69
2021/03/31 12:55:48;;;;;;;11.80;6.55;;;23.40;46.50;;;;;;5099955;28;20085;-78
2021/03/31 12:58:17;;;;;;;16.58;7.85;;;23.20;47.10;;;;;;5100719;28;20031;-70
2021/03/31 13:00:44;;;;;;;9.82;7.45;;;22.60;48.30;;;;;;5096331;28;20481;-71
2021/03/31 13:03:10;;;;;;;13.85;9.35;;;22.70;50.00;;;;;;5098212;28;20048;-74
2021/03/31 13:05:37;;;;;;;12.68;8.15;;;22.60;48.70;;;;;;5099056;28;20020;-69
2021/03/31 13:08:05;;;;;;;23.45;12.30;;;22.20;47.90;;;;;;5096547;28;20043;-70